createdAt,value
2022-12-27T00:01:11.598Z,6.20
2022-12-27T00:03:39.603Z,6.20
2022-12-27T00:06:10.526Z,6.30
2022-12-27T00:08:38.558Z,6.30
2022-12-27T00:11:08.051Z,6.10
2022-12-27T00:13:36.007Z,5.90
2022-12-27T00:16:05.770Z,5.90
2022-12-27T00:18:33.977Z,5.90
2022-12-27T00:21:03.235Z,5.90
2022-12-27T00:23:35.121Z,6.00
2022-12-27T00:26:04.016Z,6.00
2022-12-27T00:28:32.460Z,6.10
2022-12-27T00:31:01.340Z,6.20
2022-12-27T00:33:32.486Z,6.20
2022-12-27T00:36:02.095Z,6.20
2022-12-27T00:38:30.597Z,6.10
2022-12-27T00:41:00.151Z,6.10
2022-12-27T00:43:28.780Z,6.10
2022-12-27T00:45:57.948Z,6.00
2022-12-27T00:48:26.564Z,6.00
2022-12-27T00:51:00.106Z,6.00
2022-12-27T00:53:28.451Z,5.90
2022-12-27T00:55:56.515Z,5.90
2022-12-27T00:58:26.019Z,5.90
2022-12-27T01:00:54.417Z,5.80
2022-12-27T01:03:22.620Z,5.80
2022-12-27T01:05:50.707Z,5.80
2022-12-27T01:08:18.646Z,5.70
2022-12-27T01:10:46.601Z,5.70
2022-12-27T01:13:14.717Z,5.70
2022-12-27T01:15:44.342Z,5.70
2022-12-27T01:18:12.943Z,5.70
2022-12-27T01:20:41.491Z,5.70
2022-12-27T01:23:09.452Z,5.70
2022-12-27T01:25:37.902Z,5.70
2022-12-27T01:28:05.887Z,5.70
2022-12-27T01:30:37.165Z,5.70
2022-12-27T01:33:06.538Z,5.70
2022-12-27T01:35:34.605Z,5.70
2022-12-27T01:38:02.547Z,5.70
2022-12-27T01:40:30.575Z,5.70
2022-12-27T01:42:57.658Z,5.70
2022-12-27T01:45:27.159Z,5.70
2022-12-27T01:48:00.278Z,5.60
2022-12-27T01:50:34.606Z,5.60
2022-12-27T01:53:08.641Z,5.60
2022-12-27T01:55:42.724Z,5.50
2022-12-27T01:58:14.733Z,5.50
2022-12-27T02:00:45.795Z,5.50
2022-12-27T02:03:19.244Z,5.50
2022-12-27T02:05:49.331Z,5.50
2022-12-27T02:08:27.569Z,5.50
2022-12-27T02:10:56.782Z,5.50
2022-12-27T02:13:25.038Z,5.50
2022-12-27T02:15:53.192Z,5.50
2022-12-27T02:18:21.311Z,5.50
2022-12-27T02:21:27.942Z,5.50
2022-12-27T02:24:14.930Z,5.50
2022-12-27T02:26:56.092Z,5.60
2022-12-27T02:29:44.380Z,5.50
2022-12-27T02:32:17.594Z,5.50
2022-12-27T02:34:55.622Z,5.10
2022-12-27T02:37:26.444Z,4.90
2022-12-27T02:39:54.981Z,4.60
2022-12-27T02:42:40.812Z,4.70
2022-12-27T02:45:37.545Z,5.00
2022-12-27T02:48:29.213Z,4.80
2022-12-27T02:51:24.875Z,4.70
2022-12-27T02:54:03.690Z,4.90
2022-12-27T02:57:00.674Z,5.10
2022-12-27T03:00:01.909Z,5.20
2022-12-27T03:02:52.455Z,5.20
2022-12-27T03:05:28.674Z,5.20
2022-12-27T03:08:03.991Z,5.10
2022-12-27T03:10:54.407Z,5.10
2022-12-27T03:13:47.930Z,5.10
2022-12-27T03:16:23.532Z,5.10
2022-12-27T03:19:06.862Z,5.10
2022-12-27T03:21:56.081Z,5.10
2022-12-27T03:24:45.356Z,5.20
2022-12-27T03:27:18.170Z,5.20
2022-12-27T03:30:11.027Z,5.20
2022-12-27T03:33:01.689Z,5.20
2022-12-27T03:35:36.151Z,5.20
2022-12-27T03:38:05.425Z,5.20
2022-12-27T03:41:07.007Z,5.20
2022-12-27T03:43:35.102Z,5.20
2022-12-27T03:46:31.158Z,5.20
2022-12-27T03:49:10.024Z,5.20
2022-12-27T03:51:42.383Z,5.00
2022-12-27T03:54:16.404Z,4.70
2022-12-27T03:56:44.438Z,4.40
2022-12-27T03:59:13.995Z,4.40
2022-12-27T04:01:42.498Z,4.40
2022-12-27T04:04:10.618Z,4.60
2022-12-27T04:06:40.017Z,4.80
2022-12-27T04:09:25.283Z,4.80
2022-12-27T04:12:10.765Z,4.90
2022-12-27T04:14:56.430Z,5.10
2022-12-27T04:17:41.922Z,5.10
2022-12-27T04:20:27.887Z,5.10
2022-12-27T04:23:14.560Z,5.20
2022-12-27T04:25:59.902Z,5.20
2022-12-27T04:28:45.505Z,5.20
2022-12-27T04:31:31.091Z,5.20
2022-12-27T04:34:17.030Z,5.20
2022-12-27T04:36:46.214Z,5.20
2022-12-27T04:39:15.960Z,5.10
2022-12-27T04:42:01.608Z,5.10
2022-12-27T04:44:47.038Z,5.10
2022-12-27T04:47:34.247Z,5.20
2022-12-27T04:50:20.314Z,5.20
2022-12-27T04:53:06.302Z,5.20
2022-12-27T04:55:35.728Z,5.20
2022-12-27T04:58:03.798Z,5.20
2022-12-27T05:00:50.203Z,5.30
2022-12-27T05:03:21.099Z,5.30
2022-12-27T05:05:51.288Z,5.20
2022-12-27T05:08:38.728Z,5.00
2022-12-27T05:11:28.993Z,4.90
2022-12-27T05:14:03.050Z,4.90
2022-12-27T05:16:33.022Z,4.90
2022-12-27T05:19:01.048Z,5.00
2022-12-27T05:21:29.115Z,4.80
2022-12-27T05:24:15.143Z,4.70
2022-12-27T05:26:44.796Z,4.80
2022-12-27T05:29:12.944Z,4.90
2022-12-27T05:31:40.965Z,4.80
2022-12-27T05:34:09.024Z,4.60
2022-12-27T05:36:37.005Z,4.50
2022-12-27T05:39:05.109Z,4.40
2022-12-27T05:41:33.091Z,4.50
2022-12-27T05:44:07.058Z,4.50
2022-12-27T05:46:36.062Z,4.50
2022-12-27T05:49:04.148Z,4.40
2022-12-27T05:51:32.224Z,4.30
2022-12-27T05:54:00.202Z,4.20
2022-12-27T05:56:28.208Z,4.20
2022-12-27T05:58:56.308Z,4.20
2022-12-27T06:01:25.705Z,4.10
2022-12-27T06:03:53.791Z,4.10
2022-12-27T06:06:21.878Z,4.10
2022-12-27T06:08:49.890Z,4.10
2022-12-27T06:11:20.539Z,4.10
2022-12-27T06:13:51.313Z,4.00
2022-12-27T06:16:20.504Z,3.90
2022-12-27T06:18:50.233Z,3.90
2022-12-27T06:21:20.152Z,3.90
2022-12-27T06:23:49.724Z,3.90
2022-12-27T06:26:20.816Z,3.90
2022-12-27T06:28:49.710Z,3.90
2022-12-27T06:31:18.942Z,4.00
2022-12-27T06:33:47.261Z,4.10
2022-12-27T06:36:19.132Z,4.10
2022-12-27T06:38:47.438Z,4.30
2022-12-27T06:41:18.331Z,4.40
2022-12-27T06:43:47.436Z,4.40
2022-12-27T06:46:19.873Z,4.30
2022-12-27T06:48:48.384Z,4.30
2022-12-27T06:51:19.526Z,4.10
2022-12-27T06:53:47.992Z,4.10
2022-12-27T06:56:17.988Z,4.10
2022-12-27T06:58:46.093Z,4.00
2022-12-27T07:01:16.222Z,3.90
2022-12-27T07:03:44.693Z,3.90
2022-12-27T07:06:15.087Z,3.80
2022-12-27T07:08:44.459Z,3.80
2022-12-27T07:11:14.001Z,3.80
2022-12-27T07:13:44.150Z,3.80
2022-12-27T07:16:13.816Z,3.90
2022-12-27T07:18:42.459Z,3.80
2022-12-27T07:21:13.765Z,3.80
2022-12-27T07:23:41.812Z,3.70
2022-12-27T07:26:13.338Z,3.70
2022-12-27T07:28:42.018Z,3.70
2022-12-27T07:31:11.202Z,3.60
2022-12-27T07:33:39.545Z,3.60
2022-12-27T07:36:10.106Z,3.60
2022-12-27T07:38:38.100Z,3.60
2022-12-27T07:41:06.747Z,3.60
2022-12-27T07:43:37.415Z,3.60
2022-12-27T07:46:06.652Z,3.70
2022-12-27T07:48:34.688Z,3.60
2022-12-27T07:51:02.767Z,3.70
2022-12-27T07:53:33.874Z,3.70
2022-12-27T07:56:07.022Z,3.70
2022-12-27T07:58:39.604Z,3.60
2022-12-27T08:01:08.245Z,3.60
2022-12-27T08:03:37.001Z,3.80
2022-12-27T08:06:06.186Z,3.80
2022-12-27T08:08:38.873Z,3.90
2022-12-27T08:11:07.730Z,4.00
2022-12-27T08:13:36.228Z,4.20
2022-12-27T08:16:07.572Z,4.30
2022-12-27T08:18:35.561Z,4.40
2022-12-27T08:21:03.580Z,4.50
2022-12-27T08:23:31.825Z,4.50
2022-12-27T08:26:00.255Z,4.60
2022-12-27T08:28:31.479Z,4.70
2022-12-27T08:31:00.028Z,4.70
2022-12-27T08:33:29.675Z,4.70
2022-12-27T08:35:58.745Z,4.70
2022-12-27T08:38:26.747Z,4.70
2022-12-27T08:40:54.769Z,4.80
2022-12-27T08:43:22.745Z,4.80
2022-12-27T08:45:51.118Z,4.80
2022-12-27T08:48:19.187Z,4.90
2022-12-27T08:50:48.590Z,4.90
2022-12-27T08:53:16.541Z,4.90
2022-12-27T08:55:44.485Z,4.90
2022-12-27T08:58:16.420Z,4.90
2022-12-27T09:00:44.842Z,4.90
2022-12-27T09:03:12.962Z,4.90
2022-12-27T09:05:42.105Z,5.00
2022-12-27T09:08:12.118Z,5.00
2022-12-27T09:10:43.473Z,4.90
2022-12-27T09:13:11.488Z,4.80
2022-12-27T09:15:39.605Z,4.60
2022-12-27T09:18:08.027Z,4.40
2022-12-27T09:20:36.077Z,4.50
2022-12-27T09:23:04.094Z,4.50
2022-12-27T09:25:33.430Z,4.60
2022-12-27T09:28:02.082Z,4.50
2022-12-27T09:30:30.156Z,4.70
2022-12-27T09:32:59.464Z,4.80
2022-12-27T09:35:27.497Z,4.90
2022-12-27T09:37:55.597Z,5.00
2022-12-27T09:40:23.586Z,5.00
2022-12-27T09:43:16.270Z,4.80
2022-12-27T09:45:52.597Z,4.60
2022-12-27T09:48:33.017Z,4.50
2022-12-27T09:51:05.692Z,4.50
2022-12-27T09:53:44.245Z,4.70
2022-12-27T09:56:13.897Z,4.70
2022-12-27T09:58:48.854Z,4.60
2022-12-27T10:01:22.606Z,4.60
2022-12-27T10:03:50.878Z,4.70
2022-12-27T10:06:37.364Z,4.70
2022-12-27T10:09:20.347Z,4.70
2022-12-27T10:11:54.191Z,4.80
2022-12-27T10:14:45.141Z,4.90
2022-12-27T10:17:24.929Z,4.90
2022-12-27T10:20:06.104Z,5.00
2022-12-27T10:22:38.835Z,5.10
2022-12-27T10:25:13.190Z,5.20
2022-12-27T10:27:42.136Z,5.30
2022-12-27T10:30:16.947Z,5.40
2022-12-27T10:32:45.558Z,5.50
2022-12-27T10:35:17.248Z,5.50
2022-12-27T10:37:46.555Z,5.60
2022-12-27T10:40:21.526Z,5.60
2022-12-27T10:43:03.408Z,5.70
2022-12-27T10:45:36.427Z,5.70
2022-12-27T10:48:17.931Z,5.80
2022-12-27T10:50:48.523Z,5.80
2022-12-27T10:53:38.197Z,5.80
2022-12-27T10:56:17.768Z,5.90
2022-12-27T10:58:52.981Z,5.90
2022-12-27T11:01:27.533Z,5.90
2022-12-27T11:04:19.353Z,6.00
2022-12-27T11:06:50.147Z,6.00
2022-12-27T11:09:27.975Z,6.10
2022-12-27T11:12:30.709Z,6.10
2022-12-27T11:15:01.553Z,6.10
2022-12-27T11:17:38.037Z,6.20
2022-12-27T11:20:20.217Z,6.20
2022-12-27T11:22:50.293Z,6.20
2022-12-27T11:25:18.630Z,6.30
2022-12-27T11:27:48.239Z,6.30
2022-12-27T11:30:25.414Z,6.30
2022-12-27T11:32:55.049Z,6.40
2022-12-27T11:35:24.721Z,6.40
2022-12-27T11:37:53.519Z,6.40
2022-12-27T11:40:28.083Z,6.40
2022-12-27T11:43:03.997Z,6.50
2022-12-27T11:45:39.977Z,6.50
2022-12-27T11:48:22.342Z,6.50
2022-12-27T11:51:17.194Z,6.50
2022-12-27T11:54:12.107Z,6.50
2022-12-27T11:56:44.799Z,6.50
2022-12-27T11:59:42.576Z,6.50
2022-12-27T12:02:31.852Z,6.50
2022-12-27T12:05:35.441Z,6.50
2022-12-27T12:08:27.642Z,6.50
2022-12-27T12:11:07.849Z,6.60
2022-12-27T12:14:05.637Z,6.60
2022-12-27T12:16:56.681Z,6.70
2022-12-27T12:19:39.229Z,6.70
2022-12-27T12:22:26.237Z,6.80
2022-12-27T12:25:24.328Z,6.80
2022-12-27T12:28:23.311Z,6.70
2022-12-27T12:31:14.886Z,6.70
2022-12-27T12:34:06.478Z,6.70
2022-12-27T12:36:52.868Z,6.70
2022-12-27T12:39:31.774Z,6.70
2022-12-27T12:42:21.372Z,6.80
2022-12-27T12:45:17.941Z,6.80
2022-12-27T12:48:23.041Z,6.80
2022-12-27T12:51:08.047Z,6.80
2022-12-27T12:54:03.402Z,6.80
2022-12-27T12:57:03.955Z,6.90
2022-12-27T13:00:09.106Z,6.90
2022-12-27T13:03:29.256Z,6.90
2022-12-27T13:06:05.443Z,7.00
2022-12-27T13:08:38.379Z,7.00
2022-12-27T13:11:26.483Z,7.00
2022-12-27T13:14:13.007Z,7.10
2022-12-27T13:16:51.627Z,7.10
2022-12-27T13:19:35.802Z,7.20
2022-12-27T13:22:16.728Z,7.20
2022-12-27T13:24:59.360Z,7.20
2022-12-27T13:27:35.295Z,7.20
2022-12-27T13:30:19.534Z,7.20
2022-12-27T13:33:09.969Z,7.20
2022-12-27T13:35:51.018Z,7.20
2022-12-27T13:38:34.564Z,7.20
2022-12-27T13:41:32.383Z,7.20
2022-12-27T13:44:32.736Z,7.20
2022-12-27T13:47:21.484Z,7.20
2022-12-27T13:50:03.569Z,7.30
2022-12-27T13:52:52.249Z,7.30
2022-12-27T13:55:42.598Z,7.30
2022-12-27T13:58:41.439Z,7.30
2022-12-27T14:01:28.413Z,7.30
2022-12-27T14:04:10.936Z,7.30
2022-12-27T14:07:07.424Z,7.40
2022-12-27T14:10:07.648Z,7.40
2022-12-27T14:12:56.427Z,7.40
2022-12-27T14:15:29.505Z,7.40
2022-12-27T14:18:19.894Z,7.40
2022-12-27T14:21:02.326Z,7.40
2022-12-27T14:23:54.209Z,7.40
2022-12-27T14:26:54.050Z,7.30
2022-12-27T14:30:10.771Z,7.30
2022-12-27T14:33:20.498Z,7.30
2022-12-27T14:36:16.412Z,7.30
2022-12-27T14:39:38.537Z,7.30
2022-12-27T14:42:44.559Z,7.30
2022-12-27T14:45:46.008Z,7.30
2022-12-27T14:48:52.886Z,7.30
2022-12-27T14:52:03.428Z,7.30
2022-12-27T14:55:11.649Z,7.30
2022-12-27T14:57:49.287Z,7.30
2022-12-27T15:00:20.451Z,7.20
2022-12-27T15:03:11.061Z,7.20
2022-12-27T15:05:54.806Z,7.10
2022-12-27T15:08:50.838Z,7.10
2022-12-27T15:11:41.624Z,7.10
2022-12-27T15:14:22.788Z,7.00
2022-12-27T15:17:00.422Z,7.00
2022-12-27T15:19:45.955Z,7.00
2022-12-27T15:22:23.367Z,7.00
2022-12-27T15:25:00.534Z,7.00
2022-12-27T15:27:34.346Z,7.00
2022-12-27T15:30:19.876Z,7.00
2022-12-27T15:32:58.819Z,7.00
2022-12-27T15:35:38.005Z,7.00
2022-12-27T15:38:12.772Z,7.00
2022-12-27T15:41:10.191Z,7.00
2022-12-27T15:44:01.525Z,7.00
2022-12-27T15:47:07.434Z,6.90
2022-12-27T15:49:59.398Z,6.80
2022-12-27T15:52:40.227Z,6.70
2022-12-27T15:55:23.557Z,6.70
2022-12-27T15:58:12.311Z,6.80
2022-12-27T16:00:41.664Z,6.80
2022-12-27T16:03:33.404Z,6.80
2022-12-27T16:06:02.556Z,6.80
2022-12-27T16:08:36.633Z,6.70
2022-12-27T16:11:08.472Z,6.70
2022-12-27T16:13:46.750Z,6.60
2022-12-27T16:16:57.446Z,6.60
2022-12-27T16:19:41.345Z,6.60
2022-12-27T16:22:32.166Z,6.60
2022-12-27T16:25:01.149Z,6.60
2022-12-27T16:27:32.530Z,6.70
2022-12-27T16:30:01.887Z,6.70
2022-12-27T16:32:30.326Z,6.60
2022-12-27T16:35:14.958Z,6.50
2022-12-27T16:37:46.081Z,6.40
2022-12-27T16:40:39.174Z,6.40
2022-12-27T16:43:40.386Z,6.40
2022-12-27T16:46:36.004Z,6.30
2022-12-27T16:49:28.971Z,6.30
2022-12-27T16:52:15.913Z,6.30
2022-12-27T16:54:54.494Z,6.30
2022-12-27T16:57:42.986Z,6.30
2022-12-27T17:00:37.353Z,6.30
2022-12-27T17:03:33.565Z,6.30
2022-12-27T17:06:31.380Z,6.20
2022-12-27T17:09:24.322Z,6.30
2022-12-27T17:12:07.551Z,6.30
2022-12-27T17:14:38.382Z,6.40
2022-12-27T17:17:14.981Z,6.30
2022-12-27T17:19:50.445Z,6.30
2022-12-27T17:22:19.391Z,6.20
2022-12-27T17:24:51.335Z,6.20
2022-12-27T17:27:28.651Z,6.20
2022-12-27T17:30:06.405Z,6.20
2022-12-27T17:33:03.782Z,6.20
2022-12-27T17:35:42.778Z,6.10
2022-12-27T17:38:24.593Z,6.10
2022-12-27T17:41:03.548Z,6.10
2022-12-27T17:44:01.154Z,6.10
2022-12-27T17:46:39.226Z,6.10
2022-12-27T17:49:10.894Z,6.10
2022-12-27T17:52:10.398Z,6.20
2022-12-27T17:54:56.246Z,6.20
2022-12-27T17:57:41.811Z,6.20
2022-12-27T18:00:23.570Z,6.30
2022-12-27T18:02:53.430Z,6.30
2022-12-27T18:05:27.534Z,6.40
2022-12-27T18:08:03.674Z,6.30
2022-12-27T18:10:34.396Z,6.20
2022-12-27T18:13:05.987Z,6.10
2022-12-27T18:15:37.562Z,6.00
2022-12-27T18:18:08.323Z,6.10
2022-12-27T18:20:38.941Z,6.20
2022-12-27T18:23:18.906Z,6.10
2022-12-27T18:25:58.743Z,6.10
2022-12-27T18:28:32.948Z,5.90
2022-12-27T18:31:06.377Z,5.90
2022-12-27T18:33:36.482Z,5.90
2022-12-27T18:36:06.945Z,5.90
2022-12-27T18:38:40.084Z,6.00
2022-12-27T18:41:11.684Z,6.00
2022-12-27T18:43:44.816Z,6.00
2022-12-27T18:46:17.267Z,6.00
2022-12-27T18:48:45.693Z,6.00
2022-12-27T18:51:13.944Z,6.10
2022-12-27T18:53:45.740Z,6.20
2022-12-27T18:56:27.091Z,6.30
2022-12-27T18:59:01.477Z,6.40
2022-12-27T19:01:38.258Z,6.40
2022-12-27T19:04:34.322Z,6.30
2022-12-27T19:07:09.977Z,6.00
2022-12-27T19:09:42.613Z,5.90
2022-12-27T19:12:22.703Z,5.80
2022-12-27T19:14:51.116Z,5.70
2022-12-27T19:17:22.197Z,5.80
2022-12-27T19:19:54.029Z,5.80
2022-12-27T19:22:34.599Z,5.80
2022-12-27T19:25:06.742Z,5.80
2022-12-27T19:27:34.876Z,5.80
2022-12-27T19:30:02.864Z,5.80
2022-12-27T19:32:33.830Z,5.90
2022-12-27T19:35:04.391Z,5.90
2022-12-27T19:37:33.667Z,5.80
2022-12-27T19:40:03.243Z,5.80
2022-12-27T19:42:34.862Z,5.70
2022-12-27T19:45:03.445Z,5.70
2022-12-27T19:47:31.471Z,5.60
2022-12-27T19:49:59.583Z,5.50
2022-12-27T19:52:27.988Z,5.50
2022-12-27T19:55:02.364Z,5.50
2022-12-27T19:57:32.012Z,5.40
2022-12-27T20:00:00.037Z,5.50
2022-12-27T20:02:28.206Z,5.50
2022-12-27T20:04:56.663Z,5.60
2022-12-27T20:07:26.632Z,5.70
2022-12-27T20:09:54.608Z,5.60
2022-12-27T20:12:22.663Z,5.50
2022-12-27T20:14:52.140Z,5.60
2022-12-27T20:17:20.516Z,5.70
2022-12-27T20:19:48.672Z,5.60
2022-12-27T20:22:16.646Z,5.60
2022-12-27T20:24:46.511Z,5.70
2022-12-27T20:27:14.570Z,5.70
2022-12-27T20:29:42.656Z,5.60
2022-12-27T20:32:12.032Z,5.60
2022-12-27T20:34:40.137Z,5.40
2022-12-27T20:37:08.185Z,5.30
2022-12-27T20:39:36.170Z,5.30
2022-12-27T20:42:04.378Z,5.30
2022-12-27T20:44:32.420Z,5.30
2022-12-27T20:47:00.579Z,5.50
2022-12-27T20:49:29.960Z,5.40
2022-12-27T20:51:58.071Z,5.40
2022-12-27T20:54:26.140Z,5.50
2022-12-27T20:56:54.268Z,5.50
2022-12-27T20:59:22.543Z,5.40
2022-12-27T21:01:56.604Z,5.40
2022-12-27T21:04:26.756Z,5.30
2022-12-27T21:06:56.232Z,5.20
2022-12-27T21:09:24.295Z,5.30
2022-12-27T21:11:53.092Z,5.30
2022-12-27T21:14:21.208Z,5.30
2022-12-27T21:16:49.347Z,5.40
2022-12-27T21:19:17.405Z,5.50
2022-12-27T21:21:45.859Z,5.60
2022-12-27T21:24:15.238Z,5.60
2022-12-27T21:26:44.201Z,5.40
2022-12-27T21:29:14.507Z,5.30
2022-12-27T21:31:42.579Z,5.40
2022-12-27T21:34:10.719Z,5.50
2022-12-27T21:36:39.603Z,5.60
2022-12-27T21:39:10.914Z,5.70
2022-12-27T21:41:41.295Z,5.60
2022-12-27T21:44:09.315Z,5.50
2022-12-27T21:46:39.875Z,5.20
2022-12-27T21:49:09.808Z,5.00
2022-12-27T21:51:39.561Z,4.90
2022-12-27T21:54:08.361Z,4.90
2022-12-27T21:56:36.730Z,4.90
2022-12-27T21:59:10.936Z,5.00
2022-12-27T22:01:50.124Z,5.00
2022-12-27T22:04:21.054Z,5.00
2022-12-27T22:06:49.265Z,5.00
2022-12-27T22:09:19.272Z,5.00
2022-12-27T22:11:48.010Z,4.90
2022-12-27T22:14:21.830Z,4.80
2022-12-27T22:16:53.305Z,4.90
2022-12-27T22:19:25.239Z,4.90
2022-12-27T22:21:53.255Z,5.00
2022-12-27T22:24:21.272Z,5.20
2022-12-27T22:26:50.433Z,5.20
2022-12-27T22:29:21.679Z,5.30
2022-12-27T22:31:49.785Z,5.40
2022-12-27T22:34:17.791Z,5.40
2022-12-27T22:36:45.851Z,5.50
2022-12-27T22:39:15.414Z,5.30
2022-12-27T22:41:43.445Z,5.20
2022-12-27T22:44:13.739Z,5.10
2022-12-27T22:47:25.272Z,5.10
2022-12-27T22:49:31.663Z,4.90
2022-12-27T22:51:59.862Z,4.70
2022-12-27T22:55:03.308Z,4.90
2022-12-27T22:57:16.072Z,5.00
2022-12-27T22:59:44.337Z,5.00
2022-12-27T23:02:16.949Z,4.90
2022-12-27T23:04:45.026Z,4.50
2022-12-27T23:07:13.320Z,4.50
2022-12-27T23:09:43.598Z,4.40
2022-12-27T23:12:11.930Z,4.40
2022-12-27T23:14:40.302Z,4.50
2022-12-27T23:17:08.317Z,4.50
2022-12-27T23:19:37.719Z,4.50
2022-12-27T23:22:05.684Z,4.60
2022-12-27T23:24:33.972Z,4.80
2022-12-27T23:27:03.308Z,4.70
2022-12-27T23:29:31.274Z,4.40
2022-12-27T23:31:59.271Z,4.30
2022-12-27T23:34:29.345Z,4.20
2022-12-27T23:36:59.351Z,4.30
2022-12-27T23:39:27.748Z,4.30
2022-12-27T23:41:55.745Z,4.40
2022-12-27T23:44:33.357Z,4.40
2022-12-27T23:47:03.872Z,4.30
2022-12-27T23:49:32.096Z,4.10
2022-12-27T23:52:01.487Z,3.80
2022-12-27T23:54:29.529Z,3.80
2022-12-27T23:56:57.740Z,3.90
2022-12-27T23:59:25.776Z,4.00
